Time;durP1;ratioP1;P1;durP2;ratioP2;P2;SDS_P1;SDS_P2;PMS_P1;PMS_P2;Temp;Humidity;BMP_temperature;BMP_pressure;BME280_temperature;BME280_humidity;BME280_pressure;Samples;Min_cycle;Max_cycle;Signal;HPM_P1;HPM_P2
2021/08/16 00:00:52;;;;;;;21.8;17.45;;;;;;;19.21;100;95021.75;;;;
2021/08/16 00:01:53;;;;;;;21.8;17.45;;;;;;;19.21;100;95021.75;;;;
2021/08/16 00:02:53;;;;;;;21.8;17.45;;;;;;;19.21;100;95021.75;;;;
2021/08/16 00:03:54;;;;;;;21.8;17.45;;;;;;;19.21;100;95021.75;;;;
2021/08/16 00:04:54;;;;;;;21.8;17.45;;;;;;;19.21;100;95021.75;;;;
2021/08/16 00:05:55;;;;;;;21.5;16.9;;;;;;;19.31;100;94904.85;;;;
2021/08/16 00:06:56;;;;;;;21.5;16.9;;;;;;;19.31;100;94904.85;;;;
2021/08/16 00:07:56;;;;;;;21.5;16.9;;;;;;;19.31;100;94904.85;;;;
2021/08/16 00:08:57;;;;;;;21.5;16.9;;;;;;;19.31;100;94904.85;;;;
2021/08/16 00:09:57;;;;;;;21.5;16.9;;;;;;;19.31;100;94904.85;;;;
2021/08/16 00:11:02;;;;;;;21.5;16.9;;;;;;;19.31;100;94904.85;;;;
2021/08/16 00:12:03;;;;;;;21.5;16.9;;;;;;;19.31;100;94904.85;;;;
2021/08/16 00:13:05;;;;;;;21.5;16.9;;;;;;;19.31;100;94904.85;;;;
2021/08/16 00:14:06;;;;;;;21.5;16.9;;;;;;;19.31;100;94904.85;;;;
2021/08/16 00:15:07;;;;;;;21.5;16.9;;;;;;;19.31;100;94904.85;;;;
2021/08/16 00:16:08;;;;;;;20.15;16.3;;;;;;;19.14;100;94878.56;;;;
2021/08/16 00:17:09;;;;;;;20.15;16.3;;;;;;;19.14;100;94878.56;;;;
2021/08/16 00:18:09;;;;;;;20.15;16.3;;;;;;;19.14;100;94878.56;;;;
2021/08/16 00:19:10;;;;;;;20.15;16.3;;;;;;;19.14;100;94878.56;;;;
2021/08/16 00:20:10;;;;;;;20.15;16.3;;;;;;;19.14;100;94878.56;;;;
2021/08/16 00:21:12;;;;;;;20.15;16.3;;;;;;;19.14;100;94878.56;;;;
2021/08/16 00:22:12;;;;;;;20.15;16.3;;;;;;;19.14;100;94878.56;;;;
2021/08/16 00:23:13;;;;;;;20.15;16.3;;;;;;;19.14;100;94878.56;;;;
2021/08/16 00:24:13;;;;;;;20.15;16.3;;;;;;;19.14;100;94878.56;;;;
2021/08/16 00:25:14;;;;;;;20.15;16.3;;;;;;;19.14;100;94878.56;;;;
2021/08/16 00:26:15;;;;;;;20.15;16.3;;;;;;;19.14;100;94878.56;;;;
2021/08/16 00:27:15;;;;;;;22.00001;18;;;;;;;18.99;100;94871.96;;;;
2021/08/16 00:28:16;;;;;;;22.00001;18;;;;;;;18.99;100;94871.96;;;;
2021/08/16 00:29:16;;;;;;;22.00001;18;;;;;;;18.99;100;94871.96;;;;
2021/08/16 00:30:17;;;;;;;22.00001;18;;;;;;;18.99;100;94871.96;;;;
2021/08/16 00:31:18;;;;;;;22.00001;18;;;;;;;18.99;100;94871.96;;;;
2021/08/16 00:32:19;;;;;;;22.00001;18;;;;;;;18.99;100;94871.96;;;;
2021/08/16 00:33:19;;;;;;;22.00001;18;;;;;;;18.99;100;94871.96;;;;
2021/08/16 00:34:20;;;;;;;22.00001;18;;;;;;;18.99;100;94871.96;;;;
2021/08/16 00:35:20;;;;;;;22.00001;18;;;;;;;18.99;100;94871.96;;;;
2021/08/16 00:36:21;;;;;;;22.00001;18;;;;;;;18.99;100;94871.96;;;;
2021/08/16 00:37:21;;;;;;;22.00001;18;;;;;;;18.99;100;94871.96;;;;
2021/08/16 00:38:22;;;;;;;18.85;14.35;;;;;;;18.97;100;94885.13;;;;
2021/08/16 00:39:23;;;;;;;18.85;14.35;;;;;;;18.97;100;94885.13;;;;
2021/08/16 00:40:24;;;;;;;18.85;14.35;;;;;;;18.97;100;94885.13;;;;
2021/08/16 00:41:24;;;;;;;18.85;14.35;;;;;;;18.97;100;94885.13;;;;
2021/08/16 00:42:25;;;;;;;18.85;14.35;;;;;;;18.97;100;94885.13;;;;
2021/08/16 00:43:26;;;;;;;18.85;14.35;;;;;;;18.97;100;94885.13;;;;
2021/08/16 00:44:27;;;;;;;18.85;14.35;;;;;;;18.97;100;94885.13;;;;
2021/08/16 00:45:29;;;;;;;18.85;14.35;;;;;;;18.97;100;94885.13;;;;
2021/08/16 00:46:29;;;;;;;18.85;14.35;;;;;;;18.97;100;94885.13;;;;
2021/08/16 00:47:31;;;;;;;18.85;14.35;;;;;;;18.97;100;94885.13;;;;
2021/08/16 00:48:31;;;;;;;17.1;13.55;;;;;;;18.86;100;94889.12;;;;
2021/08/16 00:49:32;;;;;;;17.1;13.55;;;;;;;18.86;100;94889.12;;;;
2021/08/16 00:50:33;;;;;;;17.1;13.55;;;;;;;18.86;100;94889.12;;;;
2021/08/16 00:51:35;;;;;;;17.1;13.55;;;;;;;18.86;100;94889.12;;;;
2021/08/16 00:52:37;;;;;;;17.1;13.55;;;;;;;18.86;100;94889.12;;;;
2021/08/16 00:53:38;;;;;;;17.1;13.55;;;;;;;18.86;100;94889.12;;;;
2021/08/16 00:54:40;;;;;;;17.1;13.55;;;;;;;18.86;100;94889.12;;;;
2021/08/16 00:55:41;;;;;;;17.1;13.55;;;;;;;18.86;100;94889.12;;;;
2021/08/16 00:56:42;;;;;;;17.1;13.55;;;;;;;18.86;100;94889.12;;;;
2021/08/16 00:57:43;;;;;;;17.1;13.55;;;;;;;18.86;100;94889.12;;;;
2021/08/16 00:58:43;;;;;;;14.45;12.5;;;;;;;18.75;100;94889.28;;;;
2021/08/16 00:59:44;;;;;;;14.45;12.5;;;;;;;18.75;100;94889.28;;;;
2021/08/16 01:00:45;;;;;;;14.45;12.5;;;;;;;18.75;100;94889.28;;;;
2021/08/16 01:01:46;;;;;;;14.45;12.5;;;;;;;18.75;100;94889.28;;;;
2021/08/16 01:02:47;;;;;;;14.45;12.5;;;;;;;18.75;100;94889.28;;;;
2021/08/16 01:03:48;;;;;;;14.45;12.5;;;;;;;18.75;100;94889.28;;;;
2021/08/16 01:04:49;;;;;;;14.45;12.5;;;;;;;18.75;100;94889.28;;;;
2021/08/16 01:05:49;;;;;;;14.45;12.5;;;;;;;18.75;100;94889.28;;;;
2021/08/16 01:06:50;;;;;;;14.45;12.5;;;;;;;18.75;100;94889.28;;;;
2021/08/16 01:07:50;;;;;;;14.45;12.5;;;;;;;18.75;100;94889.28;;;;
2021/08/16 01:08:51;;;;;;;14.45;12.5;;;;;;;18.75;100;94889.28;;;;
2021/08/16 01:09:52;;;;;;;18.95;15.4;;;;;;;18.72;100;94911.91;;;;
2021/08/16 01:10:52;;;;;;;18.95;15.4;;;;;;;18.72;100;94911.91;;;;
2021/08/16 01:11:53;;;;;;;18.95;15.4;;;;;;;18.72;100;94911.91;;;;
2021/08/16 01:12:54;;;;;;;18.95;15.4;;;;;;;18.72;100;94911.91;;;;
2021/08/16 01:13:55;;;;;;;18.95;15.4;;;;;;;18.72;100;94911.91;;;;
2021/08/16 01:14:55;;;;;;;18.95;15.4;;;;;;;18.72;100;94911.91;;;;
2021/08/16 01:15:56;;;;;;;18.95;15.4;;;;;;;18.72;100;94911.91;;;;
2021/08/16 01:16:59;;;;;;;18.95;15.4;;;;;;;18.72;100;94911.91;;;;
2021/08/16 01:17:59;;;;;;;18.95;15.4;;;;;;;18.72;100;94911.91;;;;
2021/08/16 01:19:00;;;;;;;18.95;15.4;;;;;;;18.72;100;94911.91;;;;
2021/08/16 01:20:00;;;;;;;18.95;15.4;;;;;;;18.72;100;94911.91;;;;
2021/08/16 01:21:03;;;;;;;20.2;16.05;;;;;;;18.78;100;94895.28;;;;
2021/08/16 01:22:06;;;;;;;20.2;16.05;;;;;;;18.78;100;94895.28;;;;
2021/08/16 01:23:07;;;;;;;20.2;16.05;;;;;;;18.78;100;94895.28;;;;
2021/08/16 01:24:07;;;;;;;20.2;16.05;;;;;;;18.78;100;94895.28;;;;
2021/08/16 01:25:08;;;;;;;20.2;16.05;;;;;;;18.78;100;94895.28;;;;
2021/08/16 01:26:10;;;;;;;20.2;16.05;;;;;;;18.78;100;94895.28;;;;
2021/08/16 01:27:12;;;;;;;20.2;16.05;;;;;;;18.78;100;94895.28;;;;
2021/08/16 01:28:12;;;;;;;20.2;16.05;;;;;;;18.78;100;94895.28;;;;
2021/08/16 01:29:13;;;;;;;20.2;16.05;;;;;;;18.78;100;94895.28;;;;
2021/08/16 01:30:15;;;;;;;20.2;16.05;;;;;;;18.78;100;94895.28;;;;
2021/08/16 01:31:18;;;;;;;22.2;16.3;;;;;;;18.77;100;94912.23;;;;
2021/08/16 01:32:18;;;;;;;22.2;16.3;;;;;;;18.77;100;94912.23;;;;
2021/08/16 01:33:19;;;;;;;22.2;16.3;;;;;;;18.77;100;94912.23;;;;
2021/08/16 01:34:20;;;;;;;22.2;16.3;;;;;;;18.77;100;94912.23;;;;
2021/08/16 01:35:21;;;;;;;22.2;16.3;;;;;;;18.77;100;94912.23;;;;
2021/08/16 01:36:21;;;;;;;22.2;16.3;;;;;;;18.77;100;94912.23;;;;
2021/08/16 01:37:22;;;;;;;22.2;16.3;;;;;;;18.77;100;94912.23;;;;
2021/08/16 01:38:23;;;;;;;22.2;16.3;;;;;;;18.77;100;94912.23;;;;
2021/08/16 01:39:26;;;;;;;22.2;16.3;;;;;;;18.77;100;94912.23;;;;
2021/08/16 01:40:28;;;;;;;22.2;16.3;;;;;;;18.77;100;94912.23;;;;
2021/08/16 01:41:29;;;;;;;20.15;15.75;;;;;;;18.83;100;94893.69;;;;
2021/08/16 01:42:29;;;;;;;20.15;15.75;;;;;;;18.83;100;94893.69;;;;
2021/08/16 01:43:30;;;;;;;20.15;15.75;;;;;;;18.83;100;94893.69;;;;
2021/08/16 01:44:31;;;;;;;20.15;15.75;;;;;;;18.83;100;94893.69;;;;
2021/08/16 01:45:31;;;;;;;20.15;15.75;;;;;;;18.83;100;94893.69;;;;
2021/08/16 01:46:32;;;;;;;20.15;15.75;;;;;;;18.83;100;94893.69;;;;
2021/08/16 01:47:32;;;;;;;20.15;15.75;;;;;;;18.83;100;94893.69;;;;
2021/08/16 01:48:33;;;;;;;20.15;15.75;;;;;;;18.83;100;94893.69;;;;
2021/08/16 01:49:33;;;;;;;20.15;15.75;;;;;;;18.83;100;94893.69;;;;
2021/08/16 01:50:34;;;;;;;20.15;15.75;;;;;;;18.83;100;94893.69;;;;
2021/08/16 01:51:35;;;;;;;20.15;15.75;;;;;;;18.83;100;94893.69;;;;
2021/08/16 01:52:36;;;;;;;19.4;14.55;;;;;;;18.74;100;94910.52;;;;
2021/08/16 01:53:37;;;;;;;19.4;14.55;;;;;;;18.74;100;94910.52;;;;
2021/08/16 01:54:37;;;;;;;19.4;14.55;;;;;;;18.74;100;94910.52;;;;
2021/08/16 01:55:38;;;;;;;19.4;14.55;;;;;;;18.74;100;94910.52;;;;
2021/08/16 01:56:38;;;;;;;19.4;14.55;;;;;;;18.74;100;94910.52;;;;
2021/08/16 01:57:39;;;;;;;19.4;14.55;;;;;;;18.74;100;94910.52;;;;
2021/08/16 01:58:39;;;;;;;19.4;14.55;;;;;;;18.74;100;94910.52;;;;
2021/08/16 01:59:40;;;;;;;19.4;14.55;;;;;;;18.74;100;94910.52;;;;
2021/08/16 02:00:40;;;;;;;19.4;14.55;;;;;;;18.74;100;94910.52;;;;
2021/08/16 02:01:41;;;;;;;19.4;14.55;;;;;;;18.74;100;94910.52;;;;
2021/08/16 02:02:41;;;;;;;19.4;14.55;;;;;;;18.74;100;94910.52;;;;
2021/08/16 02:03:42;;;;;;;17;14;;;;;;;18.6;100;94899.64;;;;
2021/08/16 02:04:47;;;;;;;17;14;;;;;;;18.6;100;94899.64;;;;
2021/08/16 02:05:47;;;;;;;17;14;;;;;;;18.6;100;94899.64;;;;
2021/08/16 02:06:48;;;;;;;17;14;;;;;;;18.6;100;94899.64;;;;
2021/08/16 02:07:48;;;;;;;17;14;;;;;;;18.6;100;94899.64;;;;
2021/08/16 02:08:49;;;;;;;17;14;;;;;;;18.6;100;94899.64;;;;
2021/08/16 02:09:49;;;;;;;17;14;;;;;;;18.6;100;94899.64;;;;
2021/08/16 02:10:50;;;;;;;17;14;;;;;;;18.6;100;94899.64;;;;
2021/08/16 02:11:51;;;;;;;17;14;;;;;;;18.6;100;94899.64;;;;
2021/08/16 02:12:51;;;;;;;17;14;;;;;;;18.6;100;94899.64;;;;
2021/08/16 02:13:52;;;;;;;14.6;13.1;;;;;;;18.46;100;94877.84;;;;
2021/08/16 02:14:52;;;;;;;14.6;13.1;;;;;;;18.46;100;94877.84;;;;
2021/08/16 02:15:53;;;;;;;14.6;13.1;;;;;;;18.46;100;94877.84;;;;
2021/08/16 02:16:53;;;;;;;14.6;13.1;;;;;;;18.46;100;94877.84;;;;
2021/08/16 02:17:54;;;;;;;14.6;13.1;;;;;;;18.46;100;94877.84;;;;
2021/08/16 02:18:54;;;;;;;14.6;13.1;;;;;;;18.46;100;94877.84;;;;
2021/08/16 02:19:55;;;;;;;14.6;13.1;;;;;;;18.46;100;94877.84;;;;
2021/08/16 02:20:55;;;;;;;14.6;13.1;;;;;;;18.46;100;94877.84;;;;
2021/08/16 02:21:56;;;;;;;14.6;13.1;;;;;;;18.46;100;94877.84;;;;
2021/08/16 02:22:56;;;;;;;14.6;13.1;;;;;;;18.46;100;94877.84;;;;
2021/08/16 02:23:57;;;;;;;14.6;13.1;;;;;;;18.46;100;94877.84;;;;
2021/08/16 02:24:57;;;;;;;17.3;13.5;;;;;;;18.29;100;94875.98;;;;
2021/08/16 02:25:58;;;;;;;17.3;13.5;;;;;;;18.29;100;94875.98;;;;
2021/08/16 02:26:59;;;;;;;17.3;13.5;;;;;;;18.29;100;94875.98;;;;
2021/08/16 02:27:59;;;;;;;17.3;13.5;;;;;;;18.29;100;94875.98;;;;
2021/08/16 02:29:00;;;;;;;17.3;13.5;;;;;;;18.29;100;94875.98;;;;
2021/08/16 02:30:01;;;;;;;17.3;13.5;;;;;;;18.29;100;94875.98;;;;
2021/08/16 02:31:01;;;;;;;17.3;13.5;;;;;;;18.29;100;94875.98;;;;
2021/08/16 02:32:02;;;;;;;17.3;13.5;;;;;;;18.29;100;94875.98;;;;
2021/08/16 02:33:03;;;;;;;17.3;13.5;;;;;;;18.29;100;94875.98;;;;
2021/08/16 02:34:03;;;;;;;17.3;13.5;;;;;;;18.29;100;94875.98;;;;
2021/08/16 02:35:04;;;;;;;15.7;13.65;;;;;;;18.27;100;94839.92;;;;
2021/08/16 02:36:05;;;;;;;15.7;13.65;;;;;;;18.27;100;94839.92;;;;
2021/08/16 02:37:06;;;;;;;15.7;13.65;;;;;;;18.27;100;94839.92;;;;
2021/08/16 02:38:06;;;;;;;15.7;13.65;;;;;;;18.27;100;94839.92;;;;
2021/08/16 02:39:07;;;;;;;15.7;13.65;;;;;;;18.27;100;94839.92;;;;
2021/08/16 02:40:08;;;;;;;15.7;13.65;;;;;;;18.27;100;94839.92;;;;
2021/08/16 02:41:10;;;;;;;15.7;13.65;;;;;;;18.27;100;94839.92;;;;
2021/08/16 02:42:11;;;;;;;15.7;13.65;;;;;;;18.27;100;94839.92;;;;
2021/08/16 02:43:11;;;;;;;15.7;13.65;;;;;;;18.27;100;94839.92;;;;
2021/08/16 02:44:12;;;;;;;15.7;13.65;;;;;;;18.27;100;94839.92;;;;
2021/08/16 02:45:12;;;;;;;15.7;13.65;;;;;;;18.27;100;94839.92;;;;
2021/08/16 02:46:13;;;;;;;15.65;13.6;;;;;;;18.21;100;94847.51;;;;
2021/08/16 02:47:16;;;;;;;15.65;13.6;;;;;;;18.21;100;94847.51;;;;
2021/08/16 02:48:16;;;;;;;15.65;13.6;;;;;;;18.21;100;94847.51;;;;
2021/08/16 02:49:17;;;;;;;15.65;13.6;;;;;;;18.21;100;94847.51;;;;
2021/08/16 02:50:17;;;;;;;15.65;13.6;;;;;;;18.21;100;94847.51;;;;
2021/08/16 02:51:20;;;;;;;15.65;13.6;;;;;;;18.21;100;94847.51;;;;
2021/08/16 02:52:20;;;;;;;15.65;13.6;;;;;;;18.21;100;94847.51;;;;
2021/08/16 02:53:21;;;;;;;15.65;13.6;;;;;;;18.21;100;94847.51;;;;
2021/08/16 02:54:21;;;;;;;15.65;13.6;;;;;;;18.21;100;94847.51;;;;
2021/08/16 02:55:22;;;;;;;15.65;13.6;;;;;;;18.21;100;94847.51;;;;
2021/08/16 02:56:23;;;;;;;15.4;13.65;;;;;;;18.06;100;94845.78;;;;
2021/08/16 02:57:23;;;;;;;15.4;13.65;;;;;;;18.06;100;94845.78;;;;
2021/08/16 02:58:24;;;;;;;15.4;13.65;;;;;;;18.06;100;94845.78;;;;
2021/08/16 02:59:24;;;;;;;15.4;13.65;;;;;;;18.06;100;94845.78;;;;
2021/08/16 03:00:25;;;;;;;15.4;13.65;;;;;;;18.06;100;94845.78;;;;
2021/08/16 03:01:25;;;;;;;15.4;13.65;;;;;;;18.06;100;94845.78;;;;
2021/08/16 03:02:26;;;;;;;15.4;13.65;;;;;;;18.06;100;94845.78;;;;
2021/08/16 03:03:28;;;;;;;15.4;13.65;;;;;;;18.06;100;94845.78;;;;
2021/08/16 03:04:28;;;;;;;15.4;13.65;;;;;;;18.06;100;94845.78;;;;
2021/08/16 03:05:29;;;;;;;15.4;13.65;;;;;;;18.06;100;94845.78;;;;
2021/08/16 03:06:30;;;;;;;15.4;13.65;;;;;;;18.06;100;94845.78;;;;
2021/08/16 03:07:30;;;;;;;16.7;13.55;;;;;;;17.86;100;94857.93;;;;
2021/08/16 03:08:31;;;;;;;16.7;13.55;;;;;;;17.86;100;94857.93;;;;
2021/08/16 03:09:32;;;;;;;16.7;13.55;;;;;;;17.86;100;94857.93;;;;
2021/08/16 03:10:33;;;;;;;16.7;13.55;;;;;;;17.86;100;94857.93;;;;
2021/08/16 03:11:34;;;;;;;16.7;13.55;;;;;;;17.86;100;94857.93;;;;
2021/08/16 03:12:35;;;;;;;16.7;13.55;;;;;;;17.86;100;94857.93;;;;
2021/08/16 03:13:35;;;;;;;16.7;13.55;;;;;;;17.86;100;94857.93;;;;
2021/08/16 03:14:36;;;;;;;16.7;13.55;;;;;;;17.86;100;94857.93;;;;
2021/08/16 03:15:37;;;;;;;16.7;13.55;;;;;;;17.86;100;94857.93;;;;
2021/08/16 03:16:38;;;;;;;16.7;13.55;;;;;;;17.86;100;94857.93;;;;
2021/08/16 03:17:38;;;;;;;16.25;13.95;;;;;;;17.66;100;94860.49;;;;
2021/08/16 03:18:39;;;;;;;16.25;13.95;;;;;;;17.66;100;94860.49;;;;
2021/08/16 03:19:40;;;;;;;16.25;13.95;;;;;;;17.66;100;94860.49;;;;
2021/08/16 03:20:40;;;;;;;16.25;13.95;;;;;;;17.66;100;94860.49;;;;
2021/08/16 03:21:41;;;;;;;16.25;13.95;;;;;;;17.66;100;94860.49;;;;
2021/08/16 03:22:41;;;;;;;16.25;13.95;;;;;;;17.66;100;94860.49;;;;
2021/08/16 03:23:42;;;;;;;16.25;13.95;;;;;;;17.66;100;94860.49;;;;
2021/08/16 03:24:43;;;;;;;16.25;13.95;;;;;;;17.66;100;94860.49;;;;
2021/08/16 03:25:43;;;;;;;16.25;13.95;;;;;;;17.66;100;94860.49;;;;
2021/08/16 03:26:44;;;;;;;16.25;13.95;;;;;;;17.66;100;94860.49;;;;
2021/08/16 03:27:45;;;;;;;16.25;13.95;;;;;;;17.66;100;94860.49;;;;
2021/08/16 03:28:46;;;;;;;18.3;15;;;;;;;17.54;100;94871;;;;
2021/08/16 03:29:46;;;;;;;18.3;15;;;;;;;17.54;100;94871;;;;
2021/08/16 03:30:48;;;;;;;18.3;15;;;;;;;17.54;100;94871;;;;
2021/08/16 03:31:48;;;;;;;18.3;15;;;;;;;17.54;100;94871;;;;
2021/08/16 03:32:49;;;;;;;18.3;15;;;;;;;17.54;100;94871;;;;
2021/08/16 03:33:49;;;;;;;18.3;15;;;;;;;17.54;100;94871;;;;
2021/08/16 03:34:50;;;;;;;18.3;15;;;;;;;17.54;100;94871;;;;
2021/08/16 03:35:50;;;;;;;18.3;15;;;;;;;17.54;100;94871;;;;
2021/08/16 03:36:51;;;;;;;18.3;15;;;;;;;17.54;100;94871;;;;
2021/08/16 03:37:51;;;;;;;18.3;15;;;;;;;17.54;100;94871;;;;
2021/08/16 03:38:52;;;;;;;18.65;15.9;;;;;;;17.47;100;94865.05;;;;
2021/08/16 03:39:52;;;;;;;18.65;15.9;;;;;;;17.47;100;94865.05;;;;
2021/08/16 03:40:53;;;;;;;18.65;15.9;;;;;;;17.47;100;94865.05;;;;
2021/08/16 03:41:54;;;;;;;18.65;15.9;;;;;;;17.47;100;94865.05;;;;
2021/08/16 03:42:54;;;;;;;18.65;15.9;;;;;;;17.47;100;94865.05;;;;
2021/08/16 03:43:55;;;;;;;18.65;15.9;;;;;;;17.47;100;94865.05;;;;
2021/08/16 03:44:55;;;;;;;18.65;15.9;;;;;;;17.47;100;94865.05;;;;
2021/08/16 03:45:56;;;;;;;18.65;15.9;;;;;;;17.47;100;94865.05;;;;
2021/08/16 03:46:57;;;;;;;18.65;15.9;;;;;;;17.47;100;94865.05;;;;
2021/08/16 03:47:57;;;;;;;18.65;15.9;;;;;;;17.47;100;94865.05;;;;
2021/08/16 03:48:58;;;;;;;18.65;15.9;;;;;;;17.47;100;94865.05;;;;
2021/08/16 03:49:58;;;;;;;18.4;16.4;;;;;;;17.54;100;94859.1;;;;
2021/08/16 03:50:59;;;;;;;18.4;16.4;;;;;;;17.54;100;94859.1;;;;
2021/08/16 03:51:59;;;;;;;18.4;16.4;;;;;;;17.54;100;94859.1;;;;
2021/08/16 03:53:00;;;;;;;18.4;16.4;;;;;;;17.54;100;94859.1;;;;
2021/08/16 03:54:01;;;;;;;18.4;16.4;;;;;;;17.54;100;94859.1;;;;
2021/08/16 03:55:01;;;;;;;18.4;16.4;;;;;;;17.54;100;94859.1;;;;
2021/08/16 03:56:03;;;;;;;18.4;16.4;;;;;;;17.54;100;94859.1;;;;
2021/08/16 03:57:04;;;;;;;18.4;16.4;;;;;;;17.54;100;94859.1;;;;
2021/08/16 03:58:05;;;;;;;18.4;16.4;;;;;;;17.54;100;94859.1;;;;
2021/08/16 03:59:06;;;;;;;18.4;16.4;;;;;;;17.54;100;94859.1;;;;
2021/08/16 04:00:06;;;;;;;20.1;16.95;;;;;;;17.55;100;94850.78;;;;
2021/08/16 04:01:10;;;;;;;20.1;16.95;;;;;;;17.55;100;94850.78;;;;
2021/08/16 04:02:11;;;;;;;20.1;16.95;;;;;;;17.55;100;94850.78;;;;
2021/08/16 04:03:12;;;;;;;20.1;16.95;;;;;;;17.55;100;94850.78;;;;
2021/08/16 04:04:12;;;;;;;20.1;16.95;;;;;;;17.55;100;94850.78;;;;
2021/08/16 04:05:13;;;;;;;20.1;16.95;;;;;;;17.55;100;94850.78;;;;
2021/08/16 04:06:14;;;;;;;20.1;16.95;;;;;;;17.55;100;94850.78;;;;
2021/08/16 04:07:15;;;;;;;20.1;16.95;;;;;;;17.55;100;94850.78;;;;
2021/08/16 04:08:15;;;;;;;20.1;16.95;;;;;;;17.55;100;94850.78;;;;
2021/08/16 04:09:16;;;;;;;20.1;16.95;;;;;;;17.55;100;94850.78;;;;
2021/08/16 04:10:16;;;;;;;20.1;16.95;;;;;;;17.55;100;94850.78;;;;
2021/08/16 04:11:18;;;;;;;16;14.35;;;;;;;17.62;100;94847.56;;;;
2021/08/16 04:12:18;;;;;;;16;14.35;;;;;;;17.62;100;94847.56;;;;
2021/08/16 04:13:19;;;;;;;16;14.35;;;;;;;17.62;100;94847.56;;;;
2021/08/16 04:14:19;;;;;;;16;14.35;;;;;;;17.62;100;94847.56;;;;
2021/08/16 04:15:21;;;;;;;16;14.35;;;;;;;17.62;100;94847.56;;;;
2021/08/16 04:16:22;;;;;;;16;14.35;;;;;;;17.62;100;94847.56;;;;
2021/08/16 04:17:23;;;;;;;16;14.35;;;;;;;17.62;100;94847.56;;;;
2021/08/16 04:18:23;;;;;;;16;14.35;;;;;;;17.62;100;94847.56;;;;
2021/08/16 04:19:24;;;;;;;16;14.35;;;;;;;17.62;100;94847.56;;;;
2021/08/16 04:20:24;;;;;;;16;14.35;;;;;;;17.62;100;94847.56;;;;
2021/08/16 04:21:25;;;;;;;16;14.35;;;;;;;17.62;100;94847.56;;;;
2021/08/16 04:22:25;;;;;;;16.2;14.4;;;;;;;17.68;100;94805.86;;;;
2021/08/16 04:23:26;;;;;;;16.2;14.4;;;;;;;17.68;100;94805.86;;;;
2021/08/16 04:24:26;;;;;;;16.2;14.4;;;;;;;17.68;100;94805.86;;;;
2021/08/16 04:25:27;;;;;;;16.2;14.4;;;;;;;17.68;100;94805.86;;;;
2021/08/16 04:26:28;;;;;;;16.2;14.4;;;;;;;17.68;100;94805.86;;;;
2021/08/16 04:27:28;;;;;;;16.2;14.4;;;;;;;17.68;100;94805.86;;;;
2021/08/16 04:28:29;;;;;;;16.2;14.4;;;;;;;17.68;100;94805.86;;;;
2021/08/16 04:29:30;;;;;;;16.2;14.4;;;;;;;17.68;100;94805.86;;;;
2021/08/16 04:30:30;;;;;;;16.2;14.4;;;;;;;17.68;100;94805.86;;;;
2021/08/16 04:31:31;;;;;;;16.2;14.4;;;;;;;17.68;100;94805.86;;;;
2021/08/16 04:32:32;;;;;;;17.7;14.2;;;;;;;17.78;100;94833.17;;;;
2021/08/16 04:33:32;;;;;;;17.7;14.2;;;;;;;17.78;100;94833.17;;;;
2021/08/16 04:34:33;;;;;;;17.7;14.2;;;;;;;17.78;100;94833.17;;;;
2021/08/16 04:35:33;;;;;;;17.7;14.2;;;;;;;17.78;100;94833.17;;;;
2021/08/16 04:36:34;;;;;;;17.7;14.2;;;;;;;17.78;100;94833.17;;;;
2021/08/16 04:37:34;;;;;;;17.7;14.2;;;;;;;17.78;100;94833.17;;;;
2021/08/16 04:38:35;;;;;;;17.7;14.2;;;;;;;17.78;100;94833.17;;;;
2021/08/16 04:39:36;;;;;;;17.7;14.2;;;;;;;17.78;100;94833.17;;;;
2021/08/16 04:40:36;;;;;;;17.7;14.2;;;;;;;17.78;100;94833.17;;;;
2021/08/16 04:41:37;;;;;;;17.7;14.2;;;;;;;17.78;100;94833.17;;;;
2021/08/16 04:42:37;;;;;;;17.7;14.2;;;;;;;17.78;100;94833.17;;;;
2021/08/16 04:43:38;;;;;;;15.75;14.05;;;;;;;17.86;100;94849.34;;;;
2021/08/16 04:44:39;;;;;;;15.75;14.05;;;;;;;17.86;100;94849.34;;;;
2021/08/16 04:45:40;;;;;;;15.75;14.05;;;;;;;17.86;100;94849.34;;;;
2021/08/16 04:46:41;;;;;;;15.75;14.05;;;;;;;17.86;100;94849.34;;;;
2021/08/16 04:47:42;;;;;;;15.75;14.05;;;;;;;17.86;100;94849.34;;;;
2021/08/16 04:48:44;;;;;;;15.75;14.05;;;;;;;17.86;100;94849.34;;;;
2021/08/16 04:49:44;;;;;;;15.75;14.05;;;;;;;17.86;100;94849.34;;;;
2021/08/16 04:50:45;;;;;;;15.75;14.05;;;;;;;17.86;100;94849.34;;;;
2021/08/16 04:51:45;;;;;;;15.75;14.05;;;;;;;17.86;100;94849.34;;;;
2021/08/16 04:52:46;;;;;;;15.75;14.05;;;;;;;17.86;100;94849.34;;;;
2021/08/16 04:53:46;;;;;;;17.95;14.4;;;;;;;17.93;100;94847.06;;;;
2021/08/16 04:54:47;;;;;;;17.95;14.4;;;;;;;17.93;100;94847.06;;;;
2021/08/16 04:55:47;;;;;;;17.95;14.4;;;;;;;17.93;100;94847.06;;;;
2021/08/16 04:56:48;;;;;;;17.95;14.4;;;;;;;17.93;100;94847.06;;;;
2021/08/16 04:57:49;;;;;;;17.95;14.4;;;;;;;17.93;100;94847.06;;;;
2021/08/16 04:58:49;;;;;;;17.95;14.4;;;;;;;17.93;100;94847.06;;;;
2021/08/16 04:59:50;;;;;;;17.95;14.4;;;;;;;17.93;100;94847.06;;;;
2021/08/16 05:00:50;;;;;;;17.95;14.4;;;;;;;17.93;100;94847.06;;;;
2021/08/16 05:01:51;;;;;;;17.95;14.4;;;;;;;17.93;100;94847.06;;;;
2021/08/16 05:02:51;;;;;;;17.95;14.4;;;;;;;17.93;100;94847.06;;;;
2021/08/16 05:03:53;;;;;;;17.95;14.4;;;;;;;17.93;100;94847.06;;;;
2021/08/16 05:04:55;;;;;;;16.3;13.7;;;;;;;18.1;100;94883.86;;;;
2021/08/16 05:06:04;;;;;;;16.3;13.7;;;;;;;18.1;100;94883.86;;;;
2021/08/16 05:07:04;;;;;;;16.3;13.7;;;;;;;18.1;100;94883.86;;;;
2021/08/16 05:08:05;;;;;;;16.3;13.7;;;;;;;18.1;100;94883.86;;;;
2021/08/16 05:09:06;;;;;;;16.3;13.7;;;;;;;18.1;100;94883.86;;;;
2021/08/16 05:10:07;;;;;;;16.3;13.7;;;;;;;18.1;100;94883.86;;;;
2021/08/16 05:11:09;;;;;;;16.3;13.7;;;;;;;18.1;100;94883.86;;;;
2021/08/16 05:12:09;;;;;;;16.3;13.7;;;;;;;18.1;100;94883.86;;;;
2021/08/16 05:13:10;;;;;;;16.3;13.7;;;;;;;18.1;100;94883.86;;;;
2021/08/16 05:14:10;;;;;;;16.3;13.7;;;;;;;18.1;100;94883.86;;;;
2021/08/16 05:15:11;;;;;;;15.95;12.6;;;;;;;18.29;100;94927.5;;;;
2021/08/16 05:16:12;;;;;;;15.95;12.6;;;;;;;18.29;100;94927.5;;;;
2021/08/16 05:17:15;;;;;;;15.95;12.6;;;;;;;18.29;100;94927.5;;;;
2021/08/16 05:18:15;;;;;;;15.95;12.6;;;;;;;18.29;100;94927.5;;;;
2021/08/16 05:19:16;;;;;;;15.95;12.6;;;;;;;18.29;100;94927.5;;;;
2021/08/16 05:20:17;;;;;;;15.95;12.6;;;;;;;18.29;100;94927.5;;;;
2021/08/16 05:21:18;;;;;;;15.95;12.6;;;;;;;18.29;100;94927.5;;;;
2021/08/16 05:22:20;;;;;;;15.95;12.6;;;;;;;18.29;100;94927.5;;;;
2021/08/16 05:23:21;;;;;;;15.95;12.6;;;;;;;18.29;100;94927.5;;;;
2021/08/16 05:24:21;;;;;;;15.95;12.6;;;;;;;18.29;100;94927.5;;;;
2021/08/16 05:25:22;;;;;;;15.95;12.6;;;;;;;18.29;100;94927.5;;;;
2021/08/16 05:26:22;;;;;;;15.55;12.05;;;;;;;18.51;100;94938.33;;;;
2021/08/16 05:27:23;;;;;;;15.55;12.05;;;;;;;18.51;100;94938.33;;;;
2021/08/16 05:28:24;;;;;;;15.55;12.05;;;;;;;18.51;100;94938.33;;;;
2021/08/16 05:29:24;;;;;;;15.55;12.05;;;;;;;18.51;100;94938.33;;;;
2021/08/16 05:30:25;;;;;;;15.55;12.05;;;;;;;18.51;100;94938.33;;;;
2021/08/16 05:31:26;;;;;;;15.55;12.05;;;;;;;18.51;100;94938.33;;;;
2021/08/16 05:32:26;;;;;;;15.55;12.05;;;;;;;18.51;100;94938.33;;;;
2021/08/16 05:33:27;;;;;;;15.55;12.05;;;;;;;18.51;100;94938.33;;;;
2021/08/16 05:34:27;;;;;;;15.55;12.05;;;;;;;18.51;100;94938.33;;;;
2021/08/16 05:35:28;;;;;;;15.55;12.05;;;;;;;18.51;100;94938.33;;;;
2021/08/16 05:36:28;;;;;;;11.45;9;;;;;;;18.66;100;94940.42;;;;
2021/08/16 05:37:29;;;;;;;11.45;9;;;;;;;18.66;100;94940.42;;;;
2021/08/16 05:38:30;;;;;;;11.45;9;;;;;;;18.66;100;94940.42;;;;
2021/08/16 05:39:31;;;;;;;11.45;9;;;;;;;18.66;100;94940.42;;;;
2021/08/16 05:40:31;;;;;;;11.45;9;;;;;;;18.66;100;94940.42;;;;
2021/08/16 05:41:32;;;;;;;11.45;9;;;;;;;18.66;100;94940.42;;;;
2021/08/16 05:42:32;;;;;;;11.45;9;;;;;;;18.66;100;94940.42;;;;
2021/08/16 05:43:33;;;;;;;11.45;9;;;;;;;18.66;100;94940.42;;;;
2021/08/16 05:44:34;;;;;;;11.45;9;;;;;;;18.66;100;94940.42;;;;
2021/08/16 05:45:35;;;;;;;11.45;9;;;;;;;18.66;100;94940.42;;;;
2021/08/16 05:46:36;;;;;;;11.45;9;;;;;;;18.66;100;94940.42;;;;
2021/08/16 05:47:36;;;;;;;8.1;6.7;;;;;;;18.72;100;94974.81;;;;
2021/08/16 05:48:37;;;;;;;8.1;6.7;;;;;;;18.72;100;94974.81;;;;
2021/08/16 05:49:37;;;;;;;8.1;6.7;;;;;;;18.72;100;94974.81;;;;
2021/08/16 05:50:38;;;;;;;8.1;6.7;;;;;;;18.72;100;94974.81;;;;
2021/08/16 05:51:39;;;;;;;8.1;6.7;;;;;;;18.72;100;94974.81;;;;
2021/08/16 05:52:39;;;;;;;8.1;6.7;;;;;;;18.72;100;94974.81;;;;
2021/08/16 05:53:40;;;;;;;8.1;6.7;;;;;;;18.72;100;94974.81;;;;
2021/08/16 05:54:40;;;;;;;8.1;6.7;;;;;;;18.72;100;94974.81;;;;
2021/08/16 05:55:44;;;;;;;8.1;6.7;;;;;;;18.72;100;94974.81;;;;
2021/08/16 05:56:45;;;;;;;8.1;6.7;;;;;;;18.72;100;94974.81;;;;
2021/08/16 05:57:45;;;;;;;8.200001;6.749999;;;;;;;18.6;100;95004.93;;;;
2021/08/16 05:58:46;;;;;;;8.200001;6.749999;;;;;;;18.6;100;95004.93;;;;
2021/08/16 05:59:46;;;;;;;8.200001;6.749999;;;;;;;18.6;100;95004.93;;;;
2021/08/16 06:00:47;;;;;;;8.200001;6.749999;;;;;;;18.6;100;95004.93;;;;
2021/08/16 06:01:47;;;;;;;8.200001;6.749999;;;;;;;18.6;100;95004.93;;;;
2021/08/16 06:02:48;;;;;;;8.200001;6.749999;;;;;;;18.6;100;95004.93;;;;
2021/08/16 06:03:48;;;;;;;8.200001;6.749999;;;;;;;18.6;100;95004.93;;;;
2021/08/16 06:04:49;;;;;;;8.200001;6.749999;;;;;;;18.6;100;95004.93;;;;
2021/08/16 06:05:50;;;;;;;8.200001;6.749999;;;;;;;18.6;100;95004.93;;;;
2021/08/16 06:06:50;;;;;;;8.200001;6.749999;;;;;;;18.6;100;95004.93;;;;
2021/08/16 06:07:51;;;;;;;8.200001;6.749999;;;;;;;18.6;100;95004.93;;;;